Time;durP1;ratioP1;P1;durP2;ratioP2;P2;SDS_P1;SDS_P2;PMS_P1;PMS_P2;Temp;Humidity;BMP_temperature;BMP_pressure;BME280_temperature;BME280_humidity;BME280_pressure;Samples;Min_cycle;Max_cycle;Signal;HPM_P1;HPM_P2
2021/08/27 08:35:12;;;;;;;0.00;0.00;;;;;;;;;;5093863;27;20649;-78
2021/08/27 08:37:40;;;;;;;0.00;0.00;;;;;;;;;;5081755;28;20194;-75
2021/08/27 08:40:09;;;;;;;0.00;0.00;;;;;;;;;;5084153;28;20206;-74
2021/08/27 08:42:36;;;;;;;0.00;0.00;;;;;;;;;;5086399;28;20223;-76
2021/08/27 08:45:04;;;;;;;0.00;0.00;;;;;;;;;;5079690;28;20692;-75
2021/08/27 08:47:33;;;;;;;0.00;0.00;;;;;;;;;;5085843;28;20203;-75
2021/08/27 08:50:01;;;;;;;0.00;0.00;;;;;;;;;;5079751;28;20671;-75
2021/08/27 08:52:30;;;;;;;0.00;0.00;;;;;;;;;;5083742;28;20202;-76
2021/08/27 08:54:58;;;;;;;0.00;0.00;;;;;;;;;;5083141;28;20218;-74
2021/08/27 08:57:25;;;;;;;0.00;0.00;;;;;;;;;;5078803;28;20209;-75
2021/08/27 08:59:54;;;;;;;0.00;0.00;;;;;;;;;;5080051;28;20203;-75
2021/08/27 09:02:22;;;;;;;0.00;0.00;;;;;;;;;;5076222;28;20729;-77
2021/08/27 09:04:50;;;;;;;0.00;0.00;;;;;;;;;;5084700;28;20712;-74
2021/08/27 09:07:18;;;;;;;0.45;0.00;;;;;;;;;;5082473;28;20248;-73
2021/08/27 09:09:46;;;;;;;0.00;0.00;;;;;;;;;;5084696;28;20824;-75
2021/08/27 09:12:18;;;;;;;0.00;0.00;;;;;;;;;;5075423;28;20235;-73
2021/08/27 09:14:56;;;;;;;0.00;0.00;;;;;;;;;;5076857;28;20211;-72
2021/08/27 09:17:28;;;;;;;0.00;0.00;;;;;;;;;;5075498;28;20304;-73
2021/08/27 09:19:56;;;;;;;0.00;0.00;;;;;;;;;;5075713;28;20655;-73
2021/08/27 09:22:25;;;;;;;0.00;0.00;;;;;;;;;;5076851;28;20229;-74
2021/08/27 09:25:07;;;;;;;0.00;0.00;;;;;;;;;;5074106;28;20497;-75
2021/08/27 09:27:37;;;;;;;0.00;0.00;;;;;;;;;;5078550;28;20577;-74
2021/08/27 09:30:10;;;;;;;0.00;0.00;;;;;;;;;;5082301;28;20296;-73
2021/08/27 09:32:38;;;;;;;0.00;0.00;;;;;;;;;;5086961;28;20213;-74
2021/08/27 09:35:09;;;;;;;0.00;0.00;;;;;;;;;;5084869;28;20242;-73
2021/08/27 09:37:41;;;;;;;0.00;0.00;;;;;;;;;;5085904;28;20205;-72
2021/08/27 09:40:11;;;;;;;0.00;0.00;;;;;;;;;;5085657;28;20260;-76
2021/08/27 09:42:43;;;;;;;0.00;0.00;;;;;;;;;;5084710;28;20203;-73
2021/08/27 09:45:11;;;;;;;0.00;0.00;;;;;;;;;;5080185;28;20286;-73
2021/08/27 09:47:39;;;;;;;0.00;0.00;;;;;;;;;;5070884;28;20731;-73
2021/08/27 09:50:22;;;;;;;0.00;0.00;;;;;;;;;;5073149;28;20231;-73
2021/08/27 09:52:53;;;;;;;0.00;0.00;;;;;;;;;;5072055;28;20234;-73
2021/08/27 09:55:23;;;;;;;0.00;0.00;;;;;;;;;;5073281;28;20229;-73
2021/08/27 09:57:52;;;;;;;0.00;0.00;;;;;;;;;;5071149;28;20202;-76
2021/08/27 10:02:48;;;;;;;0.00;0.00;;;;;;;;;;5068070;22;20311;-73
2021/08/27 10:05:15;;;;;;;0.10;0.10;;;;;;;;;;5024890;28;20200;-78
2021/08/27 10:07:45;;;;;;;0.00;0.00;;;;;;;;;;5029028;28;20272;-74
2021/08/27 10:10:14;;;;;;;0.00;0.00;;;;;;;;;;5028234;28;20200;-74
2021/08/27 10:12:45;;;;;;;0.00;0.00;;;;;;;;;;5042674;28;20235;-74
2021/08/27 10:15:13;;;;;;;0.17;0.17;;;;;;;;;;5032915;28;20231;-76
2021/08/27 10:17:42;;;;;;;0.00;0.00;;;;;;;;;;5031573;28;20287;-75
2021/08/27 10:20:11;;;;;;;0.00;0.00;;;;;;;;;;5030313;28;20216;-76
2021/08/27 10:22:40;;;;;;;0.00;0.00;;;;;;;;;;5029105;28;20196;-75
2021/08/27 10:25:09;;;;;;;0.32;0.10;;;;;;;;;;5029351;28;20232;-76
2021/08/27 10:27:36;;;;;;;0.00;0.00;;;;;;;;;;5029814;28;20621;-74
2021/08/27 10:30:08;;;;;;;0.00;0.00;;;;;;;;;;5029905;28;20661;-77
2021/08/27 10:32:49;;;;;;;0.00;0.00;;;;;;;;;;5032681;28;20696;-75
2021/08/27 10:35:31;;;;;;;0.00;0.00;;;;;;;;;;5031999;28;20238;-74
2021/08/27 10:37:59;;;;;;;0.00;0.00;;;;;;;;;;5020990;28;20247;-75
2021/08/27 10:40:38;;;;;;;0.00;0.00;;;;;;;;;;5029648;28;20204;-74
2021/08/27 10:43:06;;;;;;;0.00;0.00;;;;;;;;;;5031644;28;20295;-74
2021/08/27 10:45:52;;;;;;;0.00;0.00;;;;;;;;;;5028372;28;20286;-73
2021/08/27 10:48:24;;;;;;;0.00;0.00;;;;;;;;;;5031016;28;20200;-74
2021/08/27 10:50:52;;;;;;;0.00;0.00;;;;;;;;;;5025068;28;20248;-74
2021/08/27 10:53:31;;;;;;;0.00;0.00;;;;;;;;;;5030762;28;20657;-73
2021/08/27 10:55:59;;;;;;;0.00;0.00;;;;;;;;;;5028089;28;20252;-73
2021/08/27 10:58:46;;;;;;;0.00;0.00;;;;;;;;;;5028621;28;20212;-73
2021/08/27 11:01:30;;;;;;;0.00;0.00;;;;;;;;;;5029524;28;20657;-73
2021/08/27 11:04:17;;;;;;;0.00;0.00;;;;;;;;;;5030925;28;20563;-73
2021/08/27 11:06:47;;;;;;;0.00;0.00;;;;;;;;;;5030943;28;20225;-73
2021/08/27 11:09:16;;;;;;;1.45;1.35;;;;;;;;;;5028375;28;20204;-74
2021/08/27 11:11:44;;;;;;;0.00;0.00;;;;;;;;;;5029723;28;20201;-74
2021/08/27 11:14:15;;;;;;;0.05;0.05;;;;;;;;;;5025464;28;20267;-73
2021/08/27 11:16:43;;;;;;;0.00;0.00;;;;;;;;;;5026232;28;20204;-73
2021/08/27 11:19:31;;;;;;;0.00;0.00;;;;;;;;;;5030563;28;20542;-73
2021/08/27 11:22:13;;;;;;;0.10;0.00;;;;;;;;;;5026521;28;20665;-72
2021/08/27 11:24:43;;;;;;;0.00;0.00;;;;;;;;;;5027976;28;20207;-73
2021/08/27 11:27:11;;;;;;;0.00;0.00;;;;;;;;;;5027074;28;20287;-72
2021/08/27 11:29:40;;;;;;;0.00;0.00;;;;;;;;;;5027585;28;20204;-73
2021/08/27 11:32:11;;;;;;;0.00;0.00;;;;;;;;;;5019765;28;20666;-73
2021/08/27 11:34:51;;;;;;;0.00;0.00;;;;;;;;;;5022462;28;20272;-72
2021/08/27 11:37:19;;;;;;;0.00;0.00;;;;;;;;;;5028313;28;20568;-72
2021/08/27 11:39:49;;;;;;;0.00;0.00;;;;;;;;;;5026452;28;20242;-75
2021/08/27 11:42:17;;;;;;;0.08;0.08;;;;;;;;;;5024998;28;20208;-74
2021/08/27 11:44:55;;;;;;;0.10;0.10;;;;;;;;;;5024926;28;20197;-73
2021/08/27 11:47:22;;;;;;;0.22;0.22;;;;;;;;;;5025644;28;20280;-74
2021/08/27 11:49:54;;;;;;;0.00;0.00;;;;;;;;;;5026074;28;20535;-74
2021/08/27 11:52:28;;;;;;;0.10;0.10;;;;;;;;;;5025590;28;20594;-73
2021/08/27 11:55:05;;;;;;;0.08;0.08;;;;;;;;;;5026862;28;20236;-72
2021/08/27 11:57:34;;;;;;;0.00;0.00;;;;;;;;;;5031635;28;20334;-76
2021/08/27 12:00:06;;;;;;;0.00;0.00;;;;;;;;;;5023361;28;20219;-74
2021/08/27 12:02:33;;;;;;;0.10;0.10;;;;;;;;;;5023393;28;20231;-74
2021/08/27 12:07:52;;;;;;;0.00;0.00;;;;;;;;;;5109159;27;20612;-73
2021/08/27 12:10:20;;;;;;;0.00;0.00;;;;;;;;;;5099374;28;20209;-74
2021/08/27 12:12:48;;;;;;;0.00;0.00;;;;;;;;;;5107199;28;20667;-73
2021/08/27 12:15:16;;;;;;;0.43;0.43;;;;;;;;;;5112363;28;20198;-74
2021/08/27 12:17:54;;;;;;;0.00;0.00;;;;;;;;;;5104854;28;20248;-75
2021/08/27 12:20:22;;;;;;;0.00;0.00;;;;;;;;;;5096177;28;20198;-78
2021/08/27 12:22:55;;;;;;;0.00;0.00;;;;;;;;;;5098155;28;20202;-75
2021/08/27 12:25:26;;;;;;;0.00;0.00;;;;;;;;;;5093294;28;20322;-76
2021/08/27 12:27:54;;;;;;;0.00;0.00;;;;;;;;;;5094543;28;20272;-74
2021/08/27 12:30:22;;;;;;;0.00;0.00;;;;;;;;;;5095144;28;20190;-74
2021/08/27 12:32:50;;;;;;;0.00;0.00;;;;;;;;;;5092280;28;20198;-74
2021/08/27 12:35:19;;;;;;;0.00;0.00;;;;;;;;;;5096024;28;20288;-75
2021/08/27 12:37:50;;;;;;;0.00;0.00;;;;;;;;;;5092389;28;20197;-74
2021/08/27 12:40:19;;;;;;;0.00;0.00;;;;;;;;;;5092735;28;20296;-74
2021/08/27 12:42:59;;;;;;;0.00;0.00;;;;;;;;;;5095196;28;20212;-74
2021/08/27 12:45:27;;;;;;;0.03;0.03;;;;;;;;;;5092847;28;20209;-75
2021/08/27 12:48:04;;;;;;;0.00;0.00;;;;;;;;;;5091320;28;20249;-78
2021/08/27 12:50:31;;;;;;;0.00;0.00;;;;;;;;;;5094408;28;20205;-75
2021/08/27 12:53:02;;;;;;;0.00;0.00;;;;;;;;;;5095774;28;20544;-74
2021/08/27 12:55:32;;;;;;;0.00;0.00;;;;;;;;;;5092176;28;20232;-75
2021/08/27 12:58:00;;;;;;;0.00;0.00;;;;;;;;;;5093503;28;20198;-76
2021/08/27 13:00:28;;;;;;;0.00;0.00;;;;;;;;;;5108527;28;20573;-74
2021/08/27 13:03:08;;;;;;;0.00;0.00;;;;;;;;;;5097602;28;20198;-76
2021/08/27 13:05:43;;;;;;;0.00;0.00;;;;;;;;;;5094910;28;20201;-74
2021/08/27 13:08:14;;;;;;;0.00;0.00;;;;;;;;;;5092130;28;20201;-74
2021/08/27 13:10:57;;;;;;;0.05;0.00;;;;;;;;;;5091487;28;20201;-79
2021/08/27 13:13:26;;;;;;;0.00;0.00;;;;;;;;;;5094770;28;20212;-75
2021/08/27 13:16:10;;;;;;;0.00;0.00;;;;;;;;;;5104304;28;20205;-74
2021/08/27 13:18:47;;;;;;;0.00;0.00;;;;;;;;;;5088633;28;20199;-74
2021/08/27 13:21:16;;;;;;;0.00;0.00;;;;;;;;;;5091808;28;20281;-73
2021/08/27 13:23:44;;;;;;;0.00;0.00;;;;;;;;;;5087779;28;20213;-76
2021/08/27 13:26:20;;;;;;;0.00;0.00;;;;;;;;;;5082592;28;20229;-73
2021/08/27 13:28:49;;;;;;;0.00;0.00;;;;;;;;;;5079094;28;20202;-76
2021/08/27 13:31:21;;;;;;;1.27;0.30;;;;;;;;;;5081165;28;21714;-73
2021/08/27 13:33:48;;;;;;;0.00;0.00;;;;;;;;;;5082939;28;20210;-75
2021/08/27 13:36:16;;;;;;;0.00;0.00;;;;;;;;;;5081378;28;20206;-76
2021/08/27 13:38:43;;;;;;;0.10;0.10;;;;;;;;;;5079921;28;20660;-72
2021/08/27 13:41:10;;;;;;;0.00;0.00;;;;;;;;;;5079777;28;20219;-73
2021/08/27 13:43:39;;;;;;;0.00;0.00;;;;;;;;;;5082258;28;20582;-75
2021/08/27 13:46:08;;;;;;;0.00;0.00;;;;;;;;;;5081083;28;20297;-76
2021/08/27 13:48:35;;;;;;;0.00;0.00;;;;;;;;;;5078786;28;20206;-73
2021/08/27 13:51:03;;;;;;;0.00;0.00;;;;;;;;;;5080113;28;20352;-72
2021/08/27 13:53:30;;;;;;;0.08;0.08;;;;;;;;;;5081971;28;20217;-73
2021/08/27 13:55:57;;;;;;;0.00;0.00;;;;;;;;;;5080038;28;20197;-78
2021/08/27 13:58:25;;;;;;;0.00;0.00;;;;;;;;;;5084888;28;20199;-72
2021/08/27 14:00:54;;;;;;;0.00;0.00;;;;;;;;;;5091534;28;20234;-72
2021/08/27 14:03:23;;;;;;;0.00;0.00;;;;;;;;;;5092503;28;20202;-73
2021/08/27 14:05:51;;;;;;;0.00;0.00;;;;;;;;;;5086884;28;20599;-73
2021/08/27 14:08:18;;;;;;;0.00;0.00;;;;;;;;;;5091537;28;20233;-73
2021/08/27 14:10:47;;;;;;;0.10;0.10;;;;;;;;;;5092075;28;20205;-73
2021/08/27 14:13:14;;;;;;;22.67;1.02;;;;;;;;;;5087831;28;20195;-75
2021/08/27 14:15:42;;;;;;;0.00;0.00;;;;;;;;;;5080080;28;20213;-75
2021/08/27 14:18:09;;;;;;;0.00;0.00;;;;;;;;;;5086255;28;20578;-76
2021/08/27 14:20:44;;;;;;;0.00;0.00;;;;;;;;;;5080970;28;20205;-76
2021/08/27 14:23:12;;;;;;;0.00;0.00;;;;;;;;;;5085351;28;20239;-73
2021/08/27 14:25:39;;;;;;;0.00;0.00;;;;;;;;;;5089162;28;20210;-73
2021/08/27 14:28:07;;;;;;;0.00;0.00;;;;;;;;;;5080714;28;20811;-78
2021/08/27 14:30:34;;;;;;;0.00;0.00;;;;;;;;;;5081036;28;20574;-79
2021/08/27 14:33:04;;;;;;;0.00;0.00;;;;;;;;;;5082142;28;20214;-72
2021/08/27 14:35:32;;;;;;;0.00;0.00;;;;;;;;;;5080103;28;20206;-74
2021/08/27 14:38:01;;;;;;;0.00;0.00;;;;;;;;;;5082597;28;20237;-75
2021/08/27 14:40:29;;;;;;;0.43;0.22;;;;;;;;;;5089481;28;20309;-73
2021/08/27 14:42:56;;;;;;;0.00;0.00;;;;;;;;;;5089666;28;20199;-75
2021/08/27 14:45:24;;;;;;;0.08;0.08;;;;;;;;;;5079537;28;20203;-73
2021/08/27 14:47:51;;;;;;;0.00;0.00;;;;;;;;;;5081003;28;20240;-75
2021/08/27 14:50:19;;;;;;;0.00;0.00;;;;;;;;;;5081047;28;20209;-77
2021/08/27 14:52:46;;;;;;;0.30;0.00;;;;;;;;;;5086296;28;20204;-72
2021/08/27 14:55:15;;;;;;;0.00;0.00;;;;;;;;;;5086793;28;20206;-72
2021/08/27 14:58:06;;;;;;;0.00;0.00;;;;;;;;;;5093186;28;20337;-74
2021/08/27 15:00:33;;;;;;;0.00;0.00;;;;;;;;;;5089157;28;20237;-73
2021/08/27 15:03:01;;;;;;;0.00;0.00;;;;;;;;;;5082774;28;20210;-73
2021/08/27 15:05:28;;;;;;;0.00;0.00;;;;;;;;;;5086201;28;20214;-83
2021/08/27 15:07:56;;;;;;;0.00;0.00;;;;;;;;;;5077923;28;20233;-74
2021/08/27 15:10:29;;;;;;;0.00;0.00;;;;;;;;;;5101246;28;20206;-77
2021/08/27 15:12:57;;;;;;;0.00;0.00;;;;;;;;;;5086224;22;20235;-73
2021/08/27 15:15:27;;;;;;;0.00;0.00;;;;;;;;;;5039913;28;20604;-76
2021/08/27 15:17:55;;;;;;;0.00;0.00;;;;;;;;;;5049290;28;20227;-74
2021/08/27 15:20:23;;;;;;;0.00;0.00;;;;;;;;;;5041869;28;20258;-73
2021/08/27 15:22:51;;;;;;;0.00;0.00;;;;;;;;;;5039990;28;20282;-73
2021/08/27 15:25:18;;;;;;;0.20;0.20;;;;;;;;;;5038948;28;20215;-73
2021/08/27 15:27:47;;;;;;;0.00;0.00;;;;;;;;;;5039137;28;20235;-72
2021/08/27 15:30:15;;;;;;;0.00;0.00;;;;;;;;;;5038799;28;20207;-73
2021/08/27 15:32:42;;;;;;;0.05;0.05;;;;;;;;;;5040403;28;20269;-76
2021/08/27 15:35:10;;;;;;;0.10;0.10;;;;;;;;;;5039816;28;20668;-73
2021/08/27 15:37:37;;;;;;;0.00;0.00;;;;;;;;;;5040755;28;20195;-74
2021/08/27 15:40:05;;;;;;;0.00;0.00;;;;;;;;;;5039559;28;20554;-77
2021/08/27 15:42:34;;;;;;;0.00;0.00;;;;;;;;;;5038784;28;20219;-75
2021/08/27 15:45:03;;;;;;;0.00;0.00;;;;;;;;;;5041678;28;20200;-75
2021/08/27 15:47:30;;;;;;;0.20;0.20;;;;;;;;;;5038334;28;20224;-74
2021/08/27 15:49:58;;;;;;;0.00;0.00;;;;;;;;;;5039660;28;20210;-74
2021/08/27 15:52:27;;;;;;;0.00;0.00;;;;;;;;;;5041175;28;20187;-75
2021/08/27 15:54:54;;;;;;;0.00;0.00;;;;;;;;;;5038294;28;20576;-75
2021/08/27 15:57:23;;;;;;;0.00;0.00;;;;;;;;;;5042055;28;20203;-75
2021/08/27 15:59:50;;;;;;;0.00;0.00;;;;;;;;;;5041864;28;20203;-74
2021/08/27 16:02:20;;;;;;;0.00;0.00;;;;;;;;;;5039522;28;20654;-77
2021/08/27 16:04:47;;;;;;;0.00;0.00;;;;;;;;;;5038650;28;20199;-75
2021/08/27 16:07:15;;;;;;;0.00;0.00;;;;;;;;;;5037665;28;20714;-74
2021/08/27 16:09:43;;;;;;;0.00;0.00;;;;;;;;;;5038460;28;20282;-74
2021/08/27 16:12:11;;;;;;;0.00;0.00;;;;;;;;;;5040315;28;20573;-73
2021/08/27 16:14:40;;;;;;;0.00;0.00;;;;;;;;;;5039699;28;20207;-75
2021/08/27 16:17:07;;;;;;;0.00;0.00;;;;;;;;;;5040811;28;20608;-77
2021/08/27 16:19:36;;;;;;;0.00;0.00;;;;;;;;;;5049747;28;20234;-74
2021/08/27 16:22:04;;;;;;;0.00;0.00;;;;;;;;;;5044471;28;20208;-75
2021/08/27 16:24:31;;;;;;;0.00;0.00;;;;;;;;;;5040529;28;20207;-76
2021/08/27 16:26:59;;;;;;;0.00;0.00;;;;;;;;;;5038340;28;20552;-78
2021/08/27 16:29:26;;;;;;;0.00;0.00;;;;;;;;;;5041667;28;20223;-74
2021/08/27 16:31:55;;;;;;;0.00;0.00;;;;;;;;;;5047043;28;20217;-75
2021/08/27 16:34:22;;;;;;;0.00;0.00;;;;;;;;;;5042208;28;20312;-75
2021/08/27 16:36:51;;;;;;;0.00;0.00;;;;;;;;;;5043102;28;20215;-75
2021/08/27 16:39:19;;;;;;;0.00;0.00;;;;;;;;;;5039501;28;20668;-75
2021/08/27 16:41:48;;;;;;;0.00;0.00;;;;;;;;;;5040318;28;20208;-75
2021/08/27 16:44:15;;;;;;;0.00;0.00;;;;;;;;;;5039002;28;20664;-74
2021/08/27 16:46:43;;;;;;;0.00;0.00;;;;;;;;;;5037365;28;20575;-72
2021/08/27 16:49:10;;;;;;;0.00;0.00;;;;;;;;;;5039517;28;20200;-73
2021/08/27 16:51:38;;;;;;;0.00;0.00;;;;;;;;;;5039115;28;20208;-74
2021/08/27 16:54:07;;;;;;;0.67;0.67;;;;;;;;;;5050877;28;20203;-74
2021/08/27 16:56:34;;;;;;;0.00;0.00;;;;;;;;;;5049826;28;20205;-74
2021/08/27 16:59:02;;;;;;;0.00;0.00;;;;;;;;;;5053604;28;20268;-73
2021/08/27 17:01:29;;;;;;;0.00;0.00;;;;;;;;;;5053576;28;20714;-75
2021/08/27 17:03:56;;;;;;;0.00;0.00;;;;;;;;;;5052989;28;20255;-73
2021/08/27 17:06:24;;;;;;;0.00;0.00;;;;;;;;;;5051420;28;20203;-74
2021/08/27 17:08:51;;;;;;;0.00;0.00;;;;;;;;;;5045846;28;20250;-74
2021/08/27 17:11:20;;;;;;;0.00;0.00;;;;;;;;;;5052892;28;20818;-76
2021/08/27 17:13:47;;;;;;;0.00;0.00;;;;;;;;;;5048379;28;20576;-73
2021/08/27 17:16:15;;;;;;;0.00;0.00;;;;;;;;;;5051707;28;20210;-74
2021/08/27 17:18:42;;;;;;;0.00;0.00;;;;;;;;;;5053562;28;20707;-73
2021/08/27 17:21:10;;;;;;;0.00;0.00;;;;;;;;;;5048960;28;20691;-76
2021/08/27 17:23:37;;;;;;;0.00;0.00;;;;;;;;;;5040517;28;20207;-76
2021/08/27 17:26:05;;;;;;;0.00;0.00;;;;;;;;;;5044200;28;20207;-75
2021/08/27 17:28:34;;;;;;;0.00;0.00;;;;;;;;;;5053005;28;20218;-74
2021/08/27 17:31:01;;;;;;;0.00;0.00;;;;;;;;;;5040380;28;20211;-74
2021/08/27 17:33:28;;;;;;;0.00;0.00;;;;;;;;;;5040288;28;20199;-78
2021/08/27 17:35:57;;;;;;;0.17;0.17;;;;;;;;;;5042778;28;20211;-77
2021/08/27 17:38:25;;;;;;;0.00;0.00;;;;;;;;;;5044388;28;20224;-75
2021/08/27 17:40:52;;;;;;;0.00;0.00;;;;;;;;;;5043646;28;20209;-74
2021/08/27 17:43:20;;;;;;;0.00;0.00;;;;;;;;;;5042979;28;21104;-75
2021/08/27 17:45:49;;;;;;;0.00;0.00;;;;;;;;;;5040014;28;20207;-74
2021/08/27 17:48:17;;;;;;;0.00;0.00;;;;;;;;;;5043743;28;20200;-73
2021/08/27 17:50:44;;;;;;;0.00;0.00;;;;;;;;;;5040990;28;20286;-75
2021/08/27 17:53:13;;;;;;;0.00;0.00;;;;;;;;;;5040556;28;20200;-76
2021/08/27 17:55:40;;;;;;;0.00;0.00;;;;;;;;;;5047536;28;20648;-74
2021/08/27 17:58:07;;;;;;;0.00;0.00;;;;;;;;;;5049140;28;20216;-74
2021/08/27 18:00:35;;;;;;;0.00;0.00;;;;;;;;;;5041359;28;20207;-75
2021/08/27 18:03:04;;;;;;;0.00;0.00;;;;;;;;;;5041517;28;20216;-74
2021/08/27 18:05:31;;;;;;;0.00;0.00;;;;;;;;;;5043031;28;20204;-74
2021/08/27 18:07:58;;;;;;;0.00;0.00;;;;;;;;;;5039363;28;20200;-78
2021/08/27 18:10:27;;;;;;;0.00;0.00;;;;;;;;;;5042679;28;20203;-78
2021/08/27 18:12:56;;;;;;;0.00;0.00;;;;;;;;;;5039982;28;20763;-76
2021/08/27 18:15:24;;;;;;;0.00;0.00;;;;;;;;;;5040044;28;20203;-75
2021/08/27 18:17:51;;;;;;;0.00;0.00;;;;;;;;;;5041873;28;20599;-76
2021/08/27 18:20:20;;;;;;;0.00;0.00;;;;;;;;;;5038512;28;20688;-74
2021/08/27 18:22:47;;;;;;;0.00;0.00;;;;;;;;;;5041042;28;20200;-74
2021/08/27 18:25:16;;;;;;;0.00;0.00;;;;;;;;;;5045814;28;20199;-77
2021/08/27 18:27:43;;;;;;;0.43;0.43;;;;;;;;;;5051448;28;20226;-77
2021/08/27 18:30:13;;;;;;;0.00;0.00;;;;;;;;;;5046456;28;20688;-77
2021/08/27 18:32:42;;;;;;;0.00;0.00;;;;;;;;;;5040706;28;20649;-77
2021/08/27 18:35:10;;;;;;;0.00;0.00;;;;;;;;;;5039705;28;20204;-76
2021/08/27 18:37:39;;;;;;;0.00;0.00;;;;;;;;;;5038896;28;20207;-80
2021/08/27 18:40:07;;;;;;;0.00;0.00;;;;;;;;;;5041446;28;20216;-79
2021/08/27 18:42:34;;;;;;;0.00;0.00;;;;;;;;;;5044277;28;20215;-78
2021/08/27 18:45:03;;;;;;;0.00;0.00;;;;;;;;;;5044676;28;20209;-77
2021/08/27 18:47:30;;;;;;;0.00;0.00;;;;;;;;;;5045443;28;20548;-78
2021/08/27 18:49:59;;;;;;;0.00;0.00;;;;;;;;;;5047689;28;20207;-77
2021/08/27 18:52:26;;;;;;;0.00;0.00;;;;;;;;;;5045255;28;20223;-77
2021/08/27 18:54:55;;;;;;;0.00;0.00;;;;;;;;;;5041302;28;20208;-81
2021/08/27 18:57:24;;;;;;;0.00;0.00;;;;;;;;;;5041589;28;20203;-78
2021/08/27 18:59:51;;;;;;;0.00;0.00;;;;;;;;;;5040773;28;20238;-77
2021/08/27 19:02:18;;;;;;;0.00;0.00;;;;;;;;;;5043844;28;20335;-78
2021/08/27 19:04:46;;;;;;;0.00;0.00;;;;;;;;;;5040792;28;20333;-81
2021/08/27 19:07:13;;;;;;;0.00;0.00;;;;;;;;;;5039411;28;20204;-78
2021/08/27 19:09:41;;;;;;;0.00;0.00;;;;;;;;;;5042826;28;20608;-76
2021/08/27 19:12:10;;;;;;;0.00;0.00;;;;;;;;;;5042223;28;20239;-76
2021/08/27 19:14:37;;;;;;;0.00;0.00;;;;;;;;;;5038082;28;20211;-76
2021/08/27 19:17:05;;;;;;;0.00;0.00;;;;;;;;;;5040431;28;20290;-77
2021/08/27 19:19:32;;;;;;;0.00;0.00;;;;;;;;;;5037544;28;20207;-77
2021/08/27 19:22:00;;;;;;;0.00;0.00;;;;;;;;;;5039627;28;20222;-77
2021/08/27 19:24:29;;;;;;;0.00;0.00;;;;;;;;;;5039885;28;20211;-77
2021/08/27 19:26:56;;;;;;;0.00;0.00;;;;;;;;;;5041079;28;20865;-77
2021/08/27 19:29:25;;;;;;;0.00;0.00;;;;;;;;;;5040604;28;20280;-76
2021/08/27 19:31:53;;;;;;;0.00;0.00;;;;;;;;;;5040447;28;20195;-81
2021/08/27 19:34:20;;;;;;;0.00;0.00;;;;;;;;;;5037872;28;20207;-83
2021/08/27 19:36:47;;;;;;;0.00;0.00;;;;;;;;;;5037821;28;20283;-77
2021/08/27 19:39:16;;;;;;;0.00;0.00;;;;;;;;;;5039389;28;20239;-73
2021/08/27 19:41:43;;;;;;;0.00;0.00;;;;;;;;;;5037328;28;20211;-76
2021/08/27 19:44:11;;;;;;;0.00;0.00;;;;;;;;;;5038522;28;20560;-76
2021/08/27 19:46:40;;;;;;;0.00;0.00;;;;;;;;;;5040176;28;20204;-75
2021/08/27 19:49:08;;;;;;;0.00;0.00;;;;;;;;;;5042512;28;20207;-75
2021/08/27 19:51:35;;;;;;;0.00;0.00;;;;;;;;;;5038616;28;20211;-75
2021/08/27 19:54:02;;;;;;;0.00;0.00;;;;;;;;;;5037680;28;20291;-76
2021/08/27 19:56:30;;;;;;;0.00;0.00;;;;;;;;;;5038274;28;20212;-74
2021/08/27 19:58:58;;;;;;;0.00;0.00;;;;;;;;;;5036965;28;20239;-76
2021/08/27 20:01:26;;;;;;;0.00;0.00;;;;;;;;;;5036099;28;20200;-73
2021/08/27 20:03:54;;;;;;;0.00;0.00;;;;;;;;;;5038443;28;20204;-76
2021/08/27 20:06:22;;;;;;;0.00;0.00;;;;;;;;;;5048481;28;20203;-75
2021/08/27 20:08:49;;;;;;;0.00;0.00;;;;;;;;;;5047161;28;20208;-76
2021/08/27 20:11:19;;;;;;;0.00;0.00;;;;;;;;;;5037623;28;20208;-75
2021/08/27 20:13:46;;;;;;;0.00;0.00;;;;;;;;;;5038024;28;20204;-73
2021/08/27 20:16:14;;;;;;;0.00;0.00;;;;;;;;;;5036556;28;20208;-77
2021/08/27 20:18:41;;;;;;;0.00;0.00;;;;;;;;;;5037435;28;20575;-75
2021/08/27 20:21:10;;;;;;;0.00;0.00;;;;;;;;;;5038140;28;20748;-74
2021/08/27 20:23:37;;;;;;;0.00;0.00;;;;;;;;;;5036352;28;20204;-78
2021/08/27 20:26:05;;;;;;;0.00;0.00;;;;;;;;;;5039420;28;20785;-73
2021/08/27 20:28:32;;;;;;;0.00;0.00;;;;;;;;;;5038104;28;20211;-74
2021/08/27 20:30:59;;;;;;;0.00;0.00;;;;;;;;;;5042380;28;20219;-73
2021/08/27 20:33:27;;;;;;;0.00;0.00;;;;;;;;;;5040875;28;21118;-75
2021/08/27 20:35:55;;;;;;;0.00;0.00;;;;;;;;;;5042619;28;20549;-73
2021/08/27 20:38:24;;;;;;;0.00;0.00;;;;;;;;;;5053155;28;20219;-73
2021/08/27 20:40:51;;;;;;;0.00;0.00;;;;;;;;;;5043045;28;20210;-73
2021/08/27 20:43:19;;;;;;;0.00;0.00;;;;;;;;;;5040707;28;20254;-73
2021/08/27 20:45:46;;;;;;;0.00;0.00;;;;;;;;;;5040147;28;20202;-74
2021/08/27 20:48:14;;;;;;;0.00;0.00;;;;;;;;;;5050149;28;20200;-77
2021/08/27 20:50:41;;;;;;;0.00;0.00;;;;;;;;;;5049480;28;20206;-75
2021/08/27 20:53:09;;;;;;;0.00;0.00;;;;;;;;;;5052215;28;20208;-76
2021/08/27 20:55:37;;;;;;;0.23;0.00;;;;;;;;;;5050548;28;20212;-75
2021/08/27 20:58:05;;;;;;;0.00;0.00;;;;;;;;;;5052357;28;20664;-75
2021/08/27 21:00:32;;;;;;;0.00;0.00;;;;;;;;;;5042945;28;20223;-75
2021/08/27 21:03:00;;;;;;;0.00;0.00;;;;;;;;;;5046265;28;20213;-73
2021/08/27 21:05:27;;;;;;;0.00;0.00;;;;;;;;;;5046581;28;20200;-72
2021/08/27 21:07:55;;;;;;;0.00;0.00;;;;;;;;;;5050604;28;20601;-73
2021/08/27 21:10:22;;;;;;;0.00;0.00;;;;;;;;;;5051419;28;20192;-74
2021/08/27 21:12:51;;;;;;;0.00;0.00;;;;;;;;;;5046829;28;20245;-74
2021/08/27 21:15:18;;;;;;;0.00;0.00;;;;;;;;;;5050452;28;20576;-74
2021/08/27 21:17:47;;;;;;;0.00;0.00;;;;;;;;;;5045851;28;20557;-74
2021/08/27 21:20:15;;;;;;;0.00;0.00;;;;;;;;;;5050293;28;20285;-73
2021/08/27 21:22:43;;;;;;;0.00;0.00;;;;;;;;;;5049481;28;20587;-73
2021/08/27 21:25:11;;;;;;;0.00;0.00;;;;;;;;;;5051481;28;20234;-73
2021/08/27 21:27:39;;;;;;;0.00;0.00;;;;;;;;;;5045351;28;20602;-73
2021/08/27 21:30:09;;;;;;;0.00;0.00;;;;;;;;;;5048810;28;20220;-76
2021/08/27 21:32:36;;;;;;;0.00;0.00;;;;;;;;;;5045539;28;20234;-75
2021/08/27 21:35:04;;;;;;;0.00;0.00;;;;;;;;;;5044622;28;20204;-73
2021/08/27 21:37:32;;;;;;;0.00;0.00;;;;;;;;;;5046251;28;20213;-73
2021/08/27 21:39:59;;;;;;;0.00;0.00;;;;;;;;;;5049680;28;20238;-75
2021/08/27 21:42:27;;;;;;;0.00;0.00;;;;;;;;;;5050076;28;20199;-74
2021/08/27 21:44:54;;;;;;;0.00;0.00;;;;;;;;;;5049541;28;20203;-74
2021/08/27 21:47:23;;;;;;;0.00;0.00;;;;;;;;;;5048207;28;20578;-74
2021/08/27 21:49:50;;;;;;;0.00;0.00;;;;;;;;;;5044771;28;20200;-74
2021/08/27 21:52:18;;;;;;;0.00;0.00;;;;;;;;;;5050064;28;20728;-74
2021/08/27 21:54:45;;;;;;;0.00;0.00;;;;;;;;;;5045481;28;20258;-74
2021/08/27 21:57:13;;;;;;;0.00;0.00;;;;;;;;;;5046750;28;20199;-74
2021/08/27 21:59:40;;;;;;;0.00;0.00;;;;;;;;;;5048148;28;20585;-74
2021/08/27 22:02:08;;;;;;;0.00;0.00;;;;;;;;;;5044792;28;20699;-73
2021/08/27 22:04:36;;;;;;;0.00;0.00;;;;;;;;;;5047363;28;20249;-74
2021/08/27 22:07:04;;;;;;;0.00;0.00;;;;;;;;;;5047854;28;20197;-74
2021/08/27 22:09:31;;;;;;;0.00;0.00;;;;;;;;;;5048707;28;20211;-74
2021/08/27 22:11:59;;;;;;;0.00;0.00;;;;;;;;;;5046877;28;20223;-74
2021/08/27 22:14:26;;;;;;;0.00;0.00;;;;;;;;;;5048369;28;20208;-75
2021/08/27 22:16:54;;;;;;;0.00;0.00;;;;;;;;;;5047295;28;20204;-75
2021/08/27 22:19:21;;;;;;;0.00;0.00;;;;;;;;;;5048000;28;20243;-75
2021/08/27 22:21:51;;;;;;;0.00;0.00;;;;;;;;;;5049105;28;20215;-78
2021/08/27 22:24:19;;;;;;;0.00;0.00;;;;;;;;;;5051441;28;20569;-75
2021/08/27 22:26:47;;;;;;;0.00;0.00;;;;;;;;;;5048723;28;20203;-74
2021/08/27 22:29:14;;;;;;;0.00;0.00;;;;;;;;;;5048944;28;20234;-74
2021/08/27 22:31:42;;;;;;;0.00;0.00;;;;;;;;;;5046250;28;20226;-74
2021/08/27 22:34:09;;;;;;;0.00;0.00;;;;;;;;;;5048226;28;20206;-75
2021/08/27 22:36:37;;;;;;;0.00;0.00;;;;;;;;;;5049580;28;20195;-75
2021/08/27 22:39:06;;;;;;;0.00;0.00;;;;;;;;;;5045364;28;20594;-74
2021/08/27 22:41:34;;;;;;;0.00;0.00;;;;;;;;;;5046623;28;20215;-75
2021/08/27 22:44:02;;;;;;;0.00;0.00;;;;;;;;;;5047997;28;20216;-73
2021/08/27 22:46:29;;;;;;;0.00;0.00;;;;;;;;;;5049936;28;20203;-74
2021/08/27 22:48:57;;;;;;;0.07;0.07;;;;;;;;;;5045556;28;20568;-73
2021/08/27 22:51:24;;;;;;;0.00;0.00;;;;;;;;;;5040104;28;20760;-73
2021/08/27 22:53:51;;;;;;;0.00;0.00;;;;;;;;;;5050560;28;20207;-73
2021/08/27 22:56:20;;;;;;;0.00;0.00;;;;;;;;;;5049497;28;20218;-73
2021/08/27 22:58:48;;;;;;;0.00;0.00;;;;;;;;;;5049409;28;20575;-73
2021/08/27 23:01:15;;;;;;;0.00;0.00;;;;;;;;;;5048712;28;20576;-73
2021/08/27 23:03:43;;;;;;;0.00;0.00;;;;;;;;;;5048584;28;20220;-73
2021/08/27 23:06:10;;;;;;;0.00;0.00;;;;;;;;;;5049068;28;20204;-74
2021/08/27 23:08:37;;;;;;;0.00;0.00;;;;;;;;;;5046553;28;20215;-73
2021/08/27 23:11:05;;;;;;;0.00;0.00;;;;;;;;;;5044336;28;20224;-73
2021/08/27 23:13:33;;;;;;;0.00;0.00;;;;;;;;;;5049024;28;20210;-74
2021/08/27 23:16:01;;;;;;;0.00;0.00;;;;;;;;;;5049950;28;20204;-73
2021/08/27 23:18:29;;;;;;;0.00;0.00;;;;;;;;;;5047421;28;20199;-73
2021/08/27 23:20:57;;;;;;;0.00;0.00;;;;;;;;;;5049852;28;20246;-73
2021/08/27 23:23:24;;;;;;;0.23;0.23;;;;;;;;;;5048364;28;20204;-73
2021/08/27 23:25:51;;;;;;;0.10;0.10;;;;;;;;;;5047201;28;20203;-73
2021/08/27 23:28:19;;;;;;;0.00;0.00;;;;;;;;;;5048522;28;20219;-73
2021/08/27 23:30:48;;;;;;;0.00;0.00;;;;;;;;;;5043944;28;20648;-73
2021/08/27 23:33:15;;;;;;;0.00;0.00;;;;;;;;;;5048316;28;20656;-74